Time;durP1;ratioP1;P1;durP2;ratioP2;P2;SDS_P1;SDS_P2;PMS_P1;PMS_P2;Temp;Humidity;BMP_temperature;BMP_pressure;BME280_temperature;BME280_humidity;BME280_pressure;Samples;Min_cycle;Max_cycle;Signal;HPM_P1;HPM_P2
2023/08/29 00:00:26;;;;;;;4.93;3.53;;;;;;;25.00;34.93;93181.31;5009045;28;20561;-77
2023/08/29 00:02:52;;;;;;;6.43;3.50;;;;;;;24.93;35.78;93184.19;5025233;28;20060;-77
2023/08/29 00:05:18;;;;;;;6.25;3.42;;;;;;;24.80;35.42;93184.81;5009375;28;20056;-77
2023/08/29 00:07:43;;;;;;;3.58;3.25;;;;;;;24.75;35.64;93184.53;5010107;28;20935;-78
2023/08/29 00:10:09;;;;;;;9.95;3.75;;;;;;;24.55;36.10;93179.03;5010283;28;20032;-78
2023/08/29 00:12:34;;;;;;;6.88;3.72;;;;;;;24.49;36.39;93199.75;5007642;28;20108;-78
2023/08/29 00:15:01;;;;;;;3.78;3.28;;;;;;;24.46;36.12;93195.13;5007631;28;20567;-76
2023/08/29 00:17:27;;;;;;;4.57;3.55;;;;;;;24.29;36.89;93172.53;5008984;28;20037;-77
2023/08/29 00:19:55;;;;;;;4.18;3.78;;;;;;;24.21;36.77;93170.34;5008847;28;20208;-77
2023/08/29 00:22:20;;;;;;;6.90;3.22;;;;;;;24.09;37.17;93176.34;5009711;28;20517;-77
2023/08/29 00:24:48;;;;;;;8.85;3.92;;;;;;;24.05;37.22;93186.53;5011177;28;20025;-78
2023/08/29 00:27:14;;;;;;;5.40;3.67;;;;;;;24.06;37.47;93193.47;5009977;28;20624;-78
2023/08/29 00:29:42;;;;;;;3.80;3.50;;;;;;;24.04;37.96;93184.97;5009771;28;20505;-78
2023/08/29 00:32:08;;;;;;;4.13;3.60;;;;;;;24.01;38.19;93181.91;5009337;28;20037;-77
2023/08/29 00:34:33;;;;;;;7.90;4.10;;;;;;;23.87;38.18;93171.28;5006221;28;20038;-77
2023/08/29 00:36:59;;;;;;;3.92;3.08;;;;;;;23.82;37.91;93177.16;5008355;28;20040;-78
2023/08/29 00:39:24;;;;;;;6.10;4.28;;;;;;;23.70;38.25;93177.00;5014274;28;20469;-77
2023/08/29 00:41:51;;;;;;;7.28;3.70;;;;;;;23.68;38.33;93180.09;5008921;28;20173;-77
2023/08/29 00:44:16;;;;;;;5.10;4.03;;;;;;;23.65;38.53;93180.94;5009078;28;20046;-77
2023/08/29 00:46:43;;;;;;;6.57;4.00;;;;;;;23.65;37.85;93172.78;5008212;28;20042;-78
2023/08/29 00:49:09;;;;;;;6.72;4.43;;;;;;;23.57;38.38;93174.06;5004202;28;20033;-78
2023/08/29 00:51:35;;;;;;;5.05;3.78;;;;;;;23.59;38.75;93188.00;5007892;28;20587;-78
2023/08/29 00:54:03;;;;;;;6.60;3.30;;;;;;;23.49;38.53;93172.63;5008325;28;20034;-78
2023/08/29 00:56:28;;;;;;;7.10;4.45;;;;;;;23.42;39.04;93173.47;5009304;28;20038;-78
2023/08/29 00:58:54;;;;;;;5.68;3.42;;;;;;;23.36;39.30;93180.56;5009710;28;20092;-78
2023/08/29 01:01:20;;;;;;;4.97;3.53;;;;;;;23.41;39.28;93195.59;5006124;28;20390;-77
2023/08/29 01:03:47;;;;;;;6.65;3.70;;;;;;;23.14;38.97;93169.22;5008257;28;20033;-78
2023/08/29 01:06:13;;;;;;;4.68;3.05;;;;;;;23.26;39.17;93175.28;5007974;28;20037;-77
2023/08/29 01:08:40;;;;;;;7.18;3.97;;;;;;;23.38;39.06;93185.53;5008480;28;20037;-77
2023/08/29 01:11:12;;;;;;;6.13;3.53;;;;;;;23.43;39.10;93179.66;5009359;28;20033;-77
2023/08/29 01:13:52;;;;;;;4.63;3.92;;;;;;;23.40;39.27;93180.50;5015398;28;20076;-77
2023/08/29 01:16:22;;;;;;;5.15;3.70;;;;;;;23.39;38.94;93177.00;5014553;28;20482;-77
2023/08/29 01:18:49;;;;;;;6.20;3.75;;;;;;;23.42;39.20;93167.28;5007756;28;20045;-77
2023/08/29 01:21:28;;;;;;;6.35;3.55;;;;;;;23.36;39.05;93158.84;5008199;28;20034;-77
2023/08/29 01:24:13;;;;;;;6.72;3.33;;;;;;;23.25;39.13;93127.63;5006695;28;20493;-77
2023/08/29 01:26:40;;;;;;;4.38;3.42;;;;;;;23.40;39.08;93148.72;5007474;28;20077;-77
2023/08/29 01:29:06;;;;;;;12.70;3.40;;;;;;;23.33;39.24;93131.75;5008937;28;20103;-78
2023/08/29 01:31:34;;;;;;;5.55;3.28;;;;;;;23.32;39.29;93132.94;5007112;28;20038;-78
2023/08/29 01:34:00;;;;;;;5.45;3.00;;;;;;;23.33;39.30;93137.16;5008145;28;20052;-77
2023/08/29 01:36:27;;;;;;;7.28;3.70;;;;;;;23.30;39.59;93135.28;5007353;28;20559;-78
2023/08/29 01:38:53;;;;;;;3.80;3.40;;;;;;;23.18;39.75;93114.91;5009715;28;20026;-78
2023/08/29 01:41:18;;;;;;;5.18;3.75;;;;;;;23.22;39.89;93133.88;5007502;28;20040;-78
2023/08/29 01:43:44;;;;;;;9.82;4.70;;;;;;;23.25;39.79;93136.53;5014132;28;20038;-78
2023/08/29 01:46:09;;;;;;;7.85;3.42;;;;;;;23.19;39.79;93137.38;5007751;28;20018;-78
2023/08/29 01:48:35;;;;;;;8.57;4.35;;;;;;;23.22;39.97;93134.59;5006125;28;20026;-79
2023/08/29 01:51:00;;;;;;;5.88;3.92;;;;;;;23.04;39.89;93117.81;5008321;28;20030;-78
2023/08/29 01:53:26;;;;;;;4.65;3.70;;;;;;;23.02;40.04;93129.09;5010957;28;20169;-78
2023/08/29 01:55:52;;;;;;;6.32;3.67;;;;;;;23.07;40.05;93130.59;5009973;28;20117;-78
2023/08/29 01:58:20;;;;;;;5.68;4.30;;;;;;;23.05;40.11;93128.28;5011810;28;20405;-77
2023/08/29 02:00:46;;;;;;;5.00;3.55;;;;;;;23.04;40.19;93126.72;5011434;28;20868;-77
2023/08/29 02:03:11;;;;;;;6.15;3.40;;;;;;;22.95;40.35;93140.03;5011044;28;20040;-77
2023/08/29 02:05:37;;;;;;;9.75;3.75;;;;;;;22.92;40.26;93126.53;5012126;28;20498;-78
2023/08/29 02:08:02;;;;;;;4.10;3.40;;;;;;;22.85;40.14;93119.22;5011255;28;20552;-77
2023/08/29 02:10:28;;;;;;;3.80;3.45;;;;;;;22.90;39.94;93132.34;5009458;28;20638;-77
2023/08/29 02:12:54;;;;;;;6.57;4.03;;;;;;;22.83;40.33;93143.22;5012912;28;20025;-77
2023/08/29 02:15:19;;;;;;;8.57;4.35;;;;;;;22.86;40.37;93147.09;5012842;28;20033;-78
2023/08/29 02:17:45;;;;;;;5.93;3.58;;;;;;;22.81;40.55;93136.69;5011107;28;20597;-78
2023/08/29 02:20:10;;;;;;;8.40;3.67;;;;;;;22.83;40.69;93145.94;5013879;28;20283;-77
2023/08/29 02:22:36;;;;;;;8.15;3.47;;;;;;;22.83;40.67;93143.22;5009926;28;21052;-77
2023/08/29 02:25:04;;;;;;;6.15;4.13;;;;;;;22.84;40.66;93144.00;5011701;28;20061;-77
2023/08/29 02:27:30;;;;;;;5.57;3.22;;;;;;;22.71;40.55;93127.53;5011785;28;20559;-77
2023/08/29 02:29:56;;;;;;;6.90;4.15;;;;;;;22.77;40.38;93144.09;5010415;28;20034;-78
2023/08/29 02:32:21;;;;;;;3.85;3.47;;;;;;;22.75;40.50;93133.66;5017776;28;20042;-79
2023/08/29 02:34:47;;;;;;;4.60;4.20;;;;;;;22.70;40.50;93113.19;5008655;28;20962;-77
2023/08/29 02:37:12;;;;;;;6.93;4.10;;;;;;;22.67;40.62;93113.25;5010831;28;20317;-78
2023/08/29 02:39:38;;;;;;;6.53;4.03;;;;;;;22.60;40.63;93126.88;5010364;28;20056;-77
2023/08/29 02:42:03;;;;;;;4.68;3.85;;;;;;;22.61;40.29;93126.47;5010617;28;20088;-77
2023/08/29 02:44:29;;;;;;;5.57;3.85;;;;;;;22.57;40.59;93124.97;5010032;28;20046;-78
2023/08/29 02:46:54;;;;;;;4.65;4.20;;;;;;;22.53;40.96;93124.25;5011902;28;20037;-76
2023/08/29 02:49:19;;;;;;;5.38;3.72;;;;;;;22.38;41.39;93117.47;5009732;28;20649;-77
2023/08/29 02:51:45;;;;;;;6.47;3.88;;;;;;;22.26;41.48;93108.69;5011406;28;20029;-77
2023/08/29 02:54:10;;;;;;;5.50;4.43;;;;;;;22.25;41.65;93112.56;5010417;28;20156;-77
2023/08/29 02:56:35;;;;;;;6.53;3.92;;;;;;;22.33;41.61;93123.31;5010514;28;20038;-77
2023/08/29 02:59:01;;;;;;;5.68;3.75;;;;;;;22.24;41.57;93127.25;5011656;28;20088;-77
2023/08/29 03:01:27;;;;;;;6.85;4.18;;;;;;;22.22;41.17;93132.31;5008362;28;20095;-77
2023/08/29 03:03:53;;;;;;;5.07;3.97;;;;;;;22.27;41.17;93137.31;5009341;28;20037;-76
2023/08/29 03:06:18;;;;;;;5.43;3.53;;;;;;;22.22;41.92;93135.03;5008092;28;20460;-77
2023/08/29 03:08:43;;;;;;;6.45;4.47;;;;;;;22.26;40.83;93146.59;5008949;28;20080;-77
2023/08/29 03:11:09;;;;;;;5.32;4.43;;;;;;;22.22;41.18;93140.44;5010067;28;20041;-76
2023/08/29 03:13:34;;;;;;;6.15;3.78;;;;;;;22.19;41.12;93137.75;5010793;28;20038;-78
2023/08/29 03:16:00;;;;;;;8.07;4.10;;;;;;;22.05;41.48;93119.69;5009418;28;20029;-77
2023/08/29 03:18:27;;;;;;;6.07;3.90;;;;;;;22.02;41.57;93133.28;5008858;28;20567;-78
2023/08/29 03:20:52;;;;;;;4.47;3.90;;;;;;;22.14;41.50;93124.66;5007558;28;20200;-77
2023/08/29 03:23:17;;;;;;;7.47;4.72;;;;;;;22.05;41.75;93116.22;5010824;28;20030;-77
2023/08/29 03:25:43;;;;;;;6.43;4.55;;;;;;;21.95;42.50;93109.72;5009642;28;20042;-77
2023/08/29 03:28:08;;;;;;;4.93;3.90;;;;;;;22.00;42.04;93125.53;5010602;28;20033;-77
2023/08/29 03:30:33;;;;;;;7.82;4.65;;;;;;;21.90;42.60;93104.78;5018384;28;20048;-77
2023/08/29 03:32:59;;;;;;;6.05;4.55;;;;;;;21.82;42.43;93097.88;5009366;28;20659;-76
2023/08/29 03:35:24;;;;;;;7.25;4.60;;;;;;;21.86;42.45;93120.25;5008213;28;20430;-79
2023/08/29 03:37:50;;;;;;;4.97;4.53;;;;;;;21.85;42.36;93121.47;5010430;28;20390;-78
2023/08/29 03:40:15;;;;;;;5.35;3.92;;;;;;;21.87;42.46;93124.50;5008761;28;20079;-77
2023/08/29 03:42:41;;;;;;;7.50;4.53;;;;;;;21.87;42.18;93124.50;5011922;28;20037;-77
2023/08/29 03:45:08;;;;;;;4.47;4.07;;;;;;;21.90;42.21;93131.84;5009728;28;20033;-76
2023/08/29 03:47:37;;;;;;;4.57;4.13;;;;;;;21.83;42.46;93126.50;5008977;28;20033;-78
2023/08/29 03:50:02;;;;;;;6.88;5.45;;;;;;;21.80;42.28;93105.66;5011936;28;20065;-77
2023/08/29 03:52:28;;;;;;;6.07;4.80;;;;;;;21.76;42.08;93108.38;5007185;28;20320;-77
2023/08/29 03:54:53;;;;;;;9.02;5.28;;;;;;;21.80;42.31;93105.66;5010799;28;20563;-78
2023/08/29 03:57:20;;;;;;;5.95;4.40;;;;;;;21.76;42.16;93107.59;5010027;28;20726;-77
2023/08/29 03:59:46;;;;;;;9.48;4.13;;;;;;;21.50;41.96;93059.50;5008964;28;20040;-77
2023/08/29 04:02:11;;;;;;;6.15;5.07;;;;;;;21.86;42.10;93098.59;5010835;28;20460;-76
2023/08/29 04:04:37;;;;;;;5.20;4.18;;;;;;;21.84;42.23;93114.50;5010387;28;20111;-77
2023/08/29 04:07:04;;;;;;;6.93;4.13;;;;;;;21.84;42.33;93109.09;5011570;28;20017;-76
2023/08/29 04:09:30;;;;;;;13.23;4.28;;;;;;;21.78;42.62;93086.31;5010169;28;20021;-77
2023/08/29 04:11:55;;;;;;;16.92;4.40;;;;;;;21.88;43.33;93101.69;5017021;28;20041;-76
2023/08/29 04:14:20;;;;;;;10.38;4.93;;;;;;;21.77;43.53;93101.00;5008479;28;20408;-77
2023/08/29 04:16:47;;;;;;;8.20;4.15;;;;;;;21.78;43.62;93114.16;5010288;28;20130;-76
2023/08/29 04:19:14;;;;;;;7.47;4.43;;;;;;;21.76;43.84;93113.78;5010609;28;20029;-77
2023/08/29 04:21:40;;;;;;;5.57;4.20;;;;;;;21.75;43.68;93111.50;5011626;28;20025;-76
2023/08/29 04:24:06;;;;;;;8.07;4.03;;;;;;;21.76;43.51;93088.66;5007396;28;20545;-76
2023/08/29 04:26:33;;;;;;;8.13;4.78;;;;;;;21.90;43.61;93104.78;5009188;28;20045;-77
2023/08/29 04:28:58;;;;;;;9.90;4.45;;;;;;;21.88;43.57;93096.28;5009284;28;20034;-76
2023/08/29 04:31:23;;;;;;;4.38;3.88;;;;;;;21.94;43.28;93110.94;5016341;28;20041;-77
2023/08/29 04:33:49;;;;;;;8.13;4.65;;;;;;;21.99;42.41;93096.97;5008474;28;20634;-76
2023/08/29 04:36:18;;;;;;;6.88;3.90;;;;;;;22.00;42.69;93087.63;5009574;28;20056;-76
2023/08/29 04:38:45;;;;;;;7.32;4.72;;;;;;;22.02;42.21;93088.00;5010109;28;20060;-76
2023/08/29 04:41:11;;;;;;;5.07;4.22;;;;;;;22.17;42.06;93111.06;5016888;28;20480;-77
2023/08/29 04:43:37;;;;;;;7.93;4.32;;;;;;;22.14;41.74;93098.34;5008578;28;20045;-76
2023/08/29 04:46:02;;;;;;;9.95;4.95;;;;;;;22.21;41.72;93095.56;5006792;28;20033;-76
2023/08/29 04:48:27;;;;;;;6.20;3.78;;;;;;;22.29;41.77;93102.44;5008536;28;20310;-76
2023/08/29 04:50:53;;;;;;;7.07;4.57;;;;;;;22.33;41.52;93104.38;5008644;28;20045;-77
2023/08/29 04:53:18;;;;;;;4.97;4.28;;;;;;;22.35;41.44;93110.91;5006429;28;20041;-76
2023/08/29 04:55:44;;;;;;;4.40;3.60;;;;;;;22.32;41.20;93094.69;5015313;28;20042;-76
2023/08/29 04:58:09;;;;;;;5.07;4.28;;;;;;;22.41;41.03;93100.38;5014527;28;20119;-76
2023/08/29 05:00:35;;;;;;;10.95;5.18;;;;;;;22.59;41.23;93106.38;5008465;28;20026;-76
2023/08/29 05:03:04;;;;;;;4.95;4.10;;;;;;;22.62;41.87;93089.31;5007977;28;20041;-76
2023/08/29 05:05:29;;;;;;;4.40;3.88;;;;;;;22.68;42.47;93084.97;5008743;28;20405;-76
2023/08/29 05:07:54;;;;;;;8.57;3.90;;;;;;;22.80;42.18;93079.00;5006999;28;20045;-76
2023/08/29 05:10:20;;;;;;;4.70;3.75;;;;;;;22.79;41.29;93072.03;5009070;28;20555;-76
2023/08/29 05:12:45;;;;;;;4.35;3.95;;;;;;;22.99;41.75;93083.78;5009630;28;20036;-76
2023/08/29 05:15:11;;;;;;;7.07;4.53;;;;;;;23.08;41.85;93083.28;5015908;28;20514;-76
2023/08/29 05:17:36;;;;;;;4.82;4.25;;;;;;;23.21;40.66;93086.22;5007986;28;20033;-76
2023/08/29 05:20:02;;;;;;;5.60;4.47;;;;;;;23.27;40.34;93084.56;5008847;28;20049;-76
2023/08/29 05:22:27;;;;;;;10.05;4.70;;;;;;;23.26;40.43;93069.47;5008793;28;20068;-76
2023/08/29 05:24:52;;;;;;;7.25;4.22;;;;;;;23.36;40.02;93071.25;5009414;28;20025;-77
2023/08/29 05:27:18;;;;;;;7.53;3.70;;;;;;;23.36;40.14;93073.97;5007256;28;20089;-77
2023/08/29 05:29:43;;;;;;;5.13;4.28;;;;;;;23.47;40.59;93066.41;5008278;28;20091;-76
2023/08/29 05:32:09;;;;;;;5.57;3.95;;;;;;;23.61;38.57;93066.22;5008396;28;20481;-76
2023/08/29 05:34:35;;;;;;;9.95;4.43;;;;;;;23.48;39.17;93057.88;5008330;28;20525;-76
2023/08/29 05:37:00;;;;;;;5.60;3.83;;;;;;;23.64;40.39;93078.97;5009575;28;20037;-76
2023/08/29 05:39:26;;;;;;;15.10;4.30;;;;;;;23.57;39.86;93079.06;5006703;28;20117;-77
2023/08/29 05:41:51;;;;;;;8.32;4.47;;;;;;;23.66;39.71;93079.31;5009151;28;20136;-77
2023/08/29 05:44:17;;;;;;;89.45;10.07;;;;;;;23.69;40.03;93094.78;5007503;28;20087;-76
2023/08/29 05:46:42;;;;;;;12.20;4.88;;;;;;;23.66;40.04;93095.59;5009763;28;20042;-76
2023/08/29 05:49:07;;;;;;;7.72;3.85;;;;;;;23.66;40.43;93084.72;5005150;28;20021;-77
2023/08/29 05:51:33;;;;;;;10.02;4.15;;;;;;;23.62;39.82;93065.03;5009719;28;20623;-76
2023/08/29 05:53:59;;;;;;;14.00;4.82;;;;;;;23.55;39.76;93073.31;5006116;28;20088;-76
2023/08/29 05:56:25;;;;;;;12.23;4.10;;;;;;;23.51;40.24;93072.59;5007665;28;20034;-77
2023/08/29 05:58:50;;;;;;;8.20;3.88;;;;;;;23.45;40.68;93079.63;5006484;28;20045;-78
2023/08/29 06:01:15;;;;;;;9.02;4.22;;;;;;;23.36;40.97;93079.41;5007246;28;20566;-77
2023/08/29 06:03:41;;;;;;;5.38;4.70;;;;;;;23.35;41.15;93067.00;5007387;28;20238;-77
2023/08/29 06:06:07;;;;;;;8.23;4.90;;;;;;;23.38;40.43;93087.88;5006530;28;20137;-75
2023/08/29 06:08:40;;;;;;;9.80;4.93;;;;;;;23.08;41.38;93081.34;5007448;28;20474;-77
2023/08/29 06:11:06;;;;;;;5.93;3.97;;;;;;;23.07;40.46;93093.34;5005010;28;20044;-77
2023/08/29 06:13:32;;;;;;;7.68;3.95;;;;;;;23.07;41.32;93087.94;5008834;28;20116;-77
2023/08/29 06:15:57;;;;;;;8.07;4.13;;;;;;;23.23;41.09;93089.25;5006014;28;20535;-77
2023/08/29 06:18:22;;;;;;;8.05;4.25;;;;;;;23.32;41.29;93089.53;5007403;28;20032;-77
2023/08/29 06:20:48;;;;;;;12.73;5.25;;;;;;;23.23;42.34;93070.28;5005877;28;20049;-76
2023/08/29 06:23:13;;;;;;;6.55;4.15;;;;;;;23.24;40.88;93079.94;5006620;28;20103;-77
2023/08/29 06:25:40;;;;;;;8.60;4.05;;;;;;;23.48;40.83;93081.50;5007355;28;20038;-76
2023/08/29 06:28:07;;;;;;;11.77;4.32;;;;;;;23.61;41.27;93093.38;5008011;28;20032;-75
2023/08/29 06:30:34;;;;;;;9.88;4.40;;;;;;;23.67;41.39;93090.94;5007605;28;20041;-77
2023/08/29 06:33:00;;;;;;;5.90;4.03;;;;;;;23.52;41.94;93096.59;5005171;28;20034;-77
2023/08/29 06:35:25;;;;;;;8.23;3.90;;;;;;;23.78;41.40;93100.44;5005787;28;20489;-77
2023/08/29 06:37:50;;;;;;;8.27;4.82;;;;;;;23.94;41.61;93089.69;5007335;28;20030;-76
2023/08/29 06:40:16;;;;;;;7.53;4.00;;;;;;;24.12;41.04;93088.63;5018567;28;20061;-76
2023/08/29 06:42:41;;;;;;;14.85;4.28;;;;;;;24.23;40.69;93089.97;5010803;28;20218;-76
2023/08/29 06:45:08;;;;;;;6.38;3.80;;;;;;;24.16;39.98;93094.75;5008749;28;20091;-76
2023/08/29 06:47:33;;;;;;;8.38;4.15;;;;;;;24.05;40.27;93075.16;5009899;28;20038;-76
2023/08/29 06:49:59;;;;;;;12.18;3.92;;;;;;;24.06;40.67;93084.81;5011237;28;20528;-76
2023/08/29 06:52:26;;;;;;;11.10;4.10;;;;;;;24.26;39.91;93082.94;5008171;28;20037;-76
2023/08/29 06:54:51;;;;;;;5.68;3.92;;;;;;;24.34;40.10;93087.84;5012471;28;20030;-76
2023/08/29 06:57:17;;;;;;;8.20;4.30;;;;;;;24.54;41.34;93076.94;5011785;28;20050;-76
2023/08/29 06:59:42;;;;;;;7.82;3.83;;;;;;;24.64;40.00;93086.81;5009431;28;20046;-77
2023/08/29 07:02:08;;;;;;;10.23;3.67;;;;;;;24.46;40.00;93085.66;5008307;28;20087;-78
2023/08/29 07:04:33;;;;;;;6.15;4.00;;;;;;;24.39;40.11;93078.44;5025662;28;20041;-76
2023/08/29 07:06:58;;;;;;;4.85;3.75;;;;;;;24.51;39.36;93074.28;5010561;28;20017;-77
2023/08/29 07:09:27;;;;;;;9.55;3.92;;;;;;;24.71;39.09;93081.28;5010602;28;20018;-76
2023/08/29 07:11:53;;;;;;;9.07;3.90;;;;;;;24.62;38.81;93083.78;5009553;28;20064;-77
2023/08/29 07:14:19;;;;;;;6.97;3.80;;;;;;;24.71;39.42;93083.22;5011134;28;20133;-77
2023/08/29 07:16:44;;;;;;;9.45;4.38;;;;;;;24.34;39.28;93089.78;5009519;28;20046;-77
2023/08/29 07:19:11;;;;;;;5.32;4.30;;;;;;;24.53;39.78;93113.47;5008739;28;20422;-77
2023/08/29 07:21:37;;;;;;;12.60;4.35;;;;;;;24.80;39.09;93088.88;5013068;28;20029;-78
2023/08/29 07:24:04;;;;;;;7.00;3.65;;;;;;;24.59;39.11;93098.19;5011090;28;20057;-77
2023/08/29 07:26:30;;;;;;;8.32;3.78;;;;;;;24.77;38.59;93095.94;5010489;28;20111;-78
2023/08/29 07:28:55;;;;;;;7.03;3.72;;;;;;;25.00;38.04;93091.56;5009657;28;20149;-77
2023/08/29 07:31:21;;;;;;;6.97;4.18;;;;;;;24.82;39.51;93106.31;5017259;28;20472;-76
2023/08/29 07:33:46;;;;;;;7.40;4.32;;;;;;;24.83;38.70;93104.38;5009699;28;20498;-77
2023/08/29 07:36:11;;;;;;;9.23;4.80;;;;;;;24.62;38.96;93105.53;5009151;28;20075;-77
2023/08/29 07:38:37;;;;;;;9.27;4.88;;;;;;;24.84;38.82;93098.47;5010545;28;20104;-77
2023/08/29 07:41:02;;;;;;;6.28;4.15;;;;;;;25.19;37.65;93102.41;5009042;28;20049;-76
2023/08/29 07:43:28;;;;;;;10.95;4.43;;;;;;;25.21;38.10;93096.53;5010563;28;20564;-77
2023/08/29 07:45:53;;;;;;;7.07;4.40;;;;;;;25.42;38.38;93106.94;5009199;28;20021;-77
2023/08/29 07:48:20;;;;;;;9.10;5.38;;;;;;;25.46;37.85;93099.50;5014896;28;20034;-76
2023/08/29 07:50:45;;;;;;;8.85;4.63;;;;;;;25.20;38.25;93090.31;5008657;28;20033;-76
2023/08/29 07:53:11;;;;;;;13.45;4.93;;;;;;;25.14;37.99;93081.13;5010380;28;20508;-77
2023/08/29 07:55:36;;;;;;;11.65;4.85;;;;;;;25.31;37.87;93092.06;5010582;28;20047;-76
2023/08/29 07:58:05;;;;;;;7.07;5.22;;;;;;;25.15;37.85;93087.34;5009263;28;20451;-77
2023/08/29 08:00:30;;;;;;;8.40;4.07;;;;;;;25.43;37.53;93075.81;5009769;28;20483;-77
2023/08/29 08:02:55;;;;;;;9.95;4.68;;;;;;;25.46;37.90;93068.78;5008686;28;20042;-76
2023/08/29 08:05:21;;;;;;;11.43;5.18;;;;;;;25.60;37.39;93077.38;5010308;28;20030;-77
2023/08/29 08:07:46;;;;;;;6.80;4.60;;;;;;;25.67;36.96;93079.91;5007387;28;20042;-77
2023/08/29 08:10:14;;;;;;;12.30;5.80;;;;;;;25.57;37.75;93075.50;5009450;28;20022;-76
2023/08/29 08:12:41;;;;;;;7.20;4.72;;;;;;;25.56;37.42;93084.09;5010957;28;20064;-78
2023/08/29 08:15:08;;;;;;;6.72;4.07;;;;;;;25.52;37.70;93078.72;5008349;28;20037;-77
2023/08/29 08:17:34;;;;;;;12.20;5.25;;;;;;;25.51;37.19;93068.28;5006535;28;20156;-77
2023/08/29 08:20:00;;;;;;;13.70;4.95;;;;;;;25.68;37.05;93077.94;5008924;28;20049;-77
2023/08/29 08:22:25;;;;;;;9.10;4.97;;;;;;;25.65;37.41;93057.03;5007627;28;20112;-77
2023/08/29 08:24:51;;;;;;;7.68;4.75;;;;;;;25.87;36.92;93065.41;5010640;28;20052;-77
2023/08/29 08:27:19;;;;;;;7.90;4.18;;;;;;;26.07;36.57;93075.03;5007934;28;20037;-77
2023/08/29 08:29:45;;;;;;;6.60;4.50;;;;;;;26.07;36.14;93058.69;5007723;28;20048;-77
2023/08/29 08:32:10;;;;;;;9.05;4.78;;;;;;;26.25;37.21;93063.66;5008570;28;20041;-77
2023/08/29 08:34:36;;;;;;;6.93;5.18;;;;;;;26.22;36.53;93047.41;5016748;28;20560;-77
2023/08/29 08:37:01;;;;;;;11.27;4.68;;;;;;;26.22;35.93;93053.63;5007962;28;20662;-75
2023/08/29 08:39:27;;;;;;;8.68;5.35;;;;;;;26.01;36.42;93038.59;5008544;28;20397;-77
2023/08/29 08:41:53;;;;;;;8.77;5.07;;;;;;;26.17;36.18;93045.22;5009754;28;20492;-77
2023/08/29 08:44:20;;;;;;;9.73;4.55;;;;;;;26.07;35.88;93044.31;5006452;28;20139;-77
2023/08/29 08:46:46;;;;;;;10.90;5.28;;;;;;;26.18;36.13;93050.25;5007372;28;20575;-77
2023/08/29 08:49:12;;;;;;;9.43;5.10;;;;;;;26.31;36.85;93050.28;5007978;28;20457;-76
2023/08/29 08:51:38;;;;;;;10.38;4.97;;;;;;;26.19;35.52;93042.84;5009938;28;20142;-76
2023/08/29 08:54:07;;;;;;;6.20;5.15;;;;;;;26.27;36.31;93049.63;5009249;28;21010;-77
2023/08/29 08:56:34;;;;;;;7.85;4.60;;;;;;;26.38;35.71;93056.31;5015857;28;20057;-77
2023/08/29 08:59:00;;;;;;;9.52;4.85;;;;;;;26.42;36.17;93046.06;5007053;28;20493;-77
2023/08/29 09:01:26;;;;;;;10.10;4.90;;;;;;;26.23;35.93;93049.72;5007233;28;20532;-77
2023/08/29 09:03:52;;;;;;;10.48;4.85;;;;;;;26.39;35.67;93040.72;5007674;28;20302;-76
2023/08/29 09:06:17;;;;;;;6.13;5.15;;;;;;;26.39;35.31;93041.50;5008203;28;20037;-77
2023/08/29 09:08:43;;;;;;;8.48;5.30;;;;;;;26.33;35.71;93051.38;5009470;28;20126;-76
2023/08/29 09:11:08;;;;;;;7.82;5.05;;;;;;;26.09;35.76;93020.13;5005927;28;20060;-77
2023/08/29 09:13:34;;;;;;;10.98;5.72;;;;;;;26.46;35.65;93040.53;5008688;28;20040;-77
2023/08/29 09:16:01;;;;;;;7.72;5.03;;;;;;;26.59;35.53;93032.41;5007606;28;20025;-76
2023/08/29 09:18:37;;;;;;;8.80;4.72;;;;;;;26.67;36.68;93036.44;5008078;28;20071;-77
2023/08/29 09:21:04;;;;;;;10.00;5.03;;;;;;;26.64;36.97;93008.09;5006663;28;20033;-77
2023/08/29 09:23:37;;;;;;;8.50;5.25;;;;;;;26.83;36.44;93036.38;5007277;28;20107;-77
2023/08/29 09:26:04;;;;;;;7.20;4.85;;;;;;;26.81;35.74;93022.38;5007180;28;20426;-77
2023/08/29 09:28:29;;;;;;;8.50;5.43;;;;;;;26.93;36.19;93035.28;5006780;28;20034;-76
2023/08/29 09:31:09;;;;;;;7.57;4.82;;;;;;;26.88;35.89;93030.38;5008318;28;20053;-76
2023/08/29 09:33:36;;;;;;;9.30;4.90;;;;;;;27.06;36.47;93038.81;5007324;28;20087;-76
2023/08/29 09:36:05;;;;;;;13.93;5.50;;;;;;;27.06;35.52;93036.09;5007155;28;20033;-77
2023/08/29 09:38:32;;;;;;;10.13;5.13;;;;;;;27.05;36.01;93042.72;5015373;28;20033;-77
2023/08/29 09:40:58;;;;;;;6.93;4.93;;;;;;;26.93;35.67;93030.59;5005940;28;20034;-76
2023/08/29 09:43:23;;;;;;;8.77;5.70;;;;;;;27.02;36.33;93038.16;5009433;28;20112;-77
2023/08/29 09:45:50;;;;;;;7.93;5.60;;;;;;;27.02;35.79;93038.16;5007974;28;20114;-77
2023/08/29 09:48:18;;;;;;;6.05;5.35;;;;;;;26.95;35.51;93039.09;5008606;28;20050;-77
2023/08/29 09:50:44;;;;;;;7.88;5.18;;;;;;;27.03;35.14;93041.66;5006561;28;20041;-76
2023/08/29 09:53:13;;;;;;;7.57;5.43;;;;;;;27.06;35.40;93047.00;5007370;28;20075;-77
2023/08/29 09:55:45;;;;;;;10.13;5.10;;;;;;;27.06;35.20;93044.25;5006771;28;20034;-76
2023/08/29 09:58:12;;;;;;;8.73;5.15;;;;;;;27.11;34.91;93042.94;5007366;28;20026;-77
2023/08/29 10:00:40;;;;;;;8.43;5.65;;;;;;;27.10;35.51;93044.91;5009120;28;20101;-77
2023/08/29 10:03:08;;;;;;;10.73;5.32;;;;;;;27.12;36.03;93037.06;5008944;28;20847;-76
2023/08/29 10:05:36;;;;;;;6.68;5.45;;;;;;;27.12;35.73;93031.63;5006148;28;20116;-76
2023/08/29 10:08:13;;;;;;;9.65;4.90;;;;;;;27.05;35.96;93031.81;5014719;28;20510;-76
2023/08/29 10:10:42;;;;;;;8.27;4.95;;;;;;;26.99;36.63;93025.34;5006672;28;20046;-77
2023/08/29 10:13:09;;;;;;;6.43;4.75;;;;;;;26.92;35.50;93029.06;5009273;28;20537;-76
2023/08/29 10:15:35;;;;;;;8.05;4.78;;;;;;;26.96;36.06;93018.03;5012032;28;20068;-77
2023/08/29 10:18:01;;;;;;;9.30;5.60;;;;;;;26.87;36.10;93015.97;5009347;28;20131;-77
2023/08/29 10:20:28;;;;;;;8.18;5.15;;;;;;;26.98;36.13;93015.66;5011711;28;20038;-75
2023/08/29 10:22:54;;;;;;;7.03;4.65;;;;;;;27.16;37.03;93026.03;5019276;28;21011;-77
2023/08/29 10:25:23;;;;;;;10.77;5.32;;;;;;;27.22;37.66;93014.13;5011469;28;20465;-77
2023/08/29 10:27:49;;;;;;;5.63;5.00;;;;;;;27.24;35.96;93013.69;5009724;28;20032;-76
2023/08/29 10:30:15;;;;;;;6.03;4.68;;;;;;;26.91;35.67;92966.75;5010230;28;20497;-77
2023/08/29 10:32:43;;;;;;;9.30;5.30;;;;;;;27.13;36.70;93014.00;5011221;28;20104;-77
2023/08/29 10:35:22;;;;;;;8.60;4.47;;;;;;;27.02;35.44;93008.13;5009814;28;20030;-76
2023/08/29 10:37:52;;;;;;;10.40;4.47;;;;;;;27.12;35.79;93009.78;5012503;28;20042;-77
2023/08/29 10:40:19;;;;;;;6.75;4.80;;;;;;;27.20;35.58;93013.81;5025082;28;20102;-77
2023/08/29 10:42:49;;;;;;;9.60;5.60;;;;;;;27.20;36.11;93002.88;5010193;28;20065;-78
2023/08/29 10:45:14;;;;;;;9.40;4.28;;;;;;;27.23;37.06;92999.28;5010492;28;20048;-77
2023/08/29 10:47:46;;;;;;;11.40;4.97;;;;;;;27.35;37.51;93006.69;5011814;28;20061;-78
2023/08/29 10:50:21;;;;;;;8.10;4.95;;;;;;;27.38;36.03;92999.56;5010271;28;20367;-78
2023/08/29 10:52:47;;;;;;;7.80;5.03;;;;;;;27.31;36.77;92995.13;5018354;28;20037;-78
2023/08/29 10:55:21;;;;;;;10.18;4.20;;;;;;;27.28;36.69;92996.00;5008716;28;20112;-77
2023/08/29 10:57:46;;;;;;;7.15;4.82;;;;;;;27.18;36.27;92996.34;5011508;28;20597;-78
2023/08/29 11:00:35;;;;;;;6.15;5.05;;;;;;;27.26;36.57;92998.41;5008100;28;20124;-77
2023/08/29 11:03:02;;;;;;;6.88;4.55;;;;;;;27.28;36.40;93001.44;5008662;28;20064;-78
2023/08/29 11:05:28;;;;;;;7.72;4.50;;;;;;;27.20;36.41;92981.06;5009102;28;20164;-78
2023/08/29 11:08:23;;;;;;;9.88;4.93;;;;;;;27.21;36.20;92990.78;5010813;28;20040;-78
2023/08/29 11:11:07;;;;;;;8.90;4.60;;;;;;;27.24;36.59;92983.66;5024453;28;20033;-78
2023/08/29 11:13:33;;;;;;;7.63;5.25;;;;;;;27.18;36.56;92985.44;5024550;28;20034;-79
2023/08/29 11:15:59;;;;;;;9.02;5.00;;;;;;;27.08;36.25;92987.31;5008458;28;20057;-77
2023/08/29 11:18:24;;;;;;;4.83;4.43;;;;;;;27.10;36.35;92984.13;5008428;28;20573;-78
2023/08/29 11:20:51;;;;;;;7.82;4.63;;;;;;;27.14;36.43;92985.53;5011275;28;20794;-79
2023/08/29 11:23:19;;;;;;;5.15;4.40;;;;;;;27.23;36.78;92987.59;5008973;28;20044;-78
2023/08/29 11:25:49;;;;;;;6.80;4.40;;;;;;;27.28;36.44;92987.81;5005668;28;20430;-77
2023/08/29 11:28:16;;;;;;;8.50;4.80;;;;;;;27.19;36.48;92968.59;5010971;28;20742;-78